sensor_id;sensor_type;location;lat;lon;timestamp;P1;durP1;ratioP1;P2;durP2;ratioP2
35550;SDS011;21655;46.056;13.616;2022-10-17T00:00:37;84.72;;;44.47;;
35550;SDS011;21655;46.056;13.616;2022-10-17T00:03:02;81.55;;;43.00;;
35550;SDS011;21655;46.056;13.616;2022-10-17T00:05:28;81.40;;;41.70;;
35550;SDS011;21655;46.056;13.616;2022-10-17T00:07:54;81.15;;;42.70;;
35550;SDS011;21655;46.056;13.616;2022-10-17T00:10:19;79.05;;;41.78;;
35550;SDS011;21655;46.056;13.616;2022-10-17T00:12:45;85.45;;;44.17;;
35550;SDS011;21655;46.056;13.616;2022-10-17T00:15:14;83.63;;;43.13;;
35550;SDS011;21655;46.056;13.616;2022-10-17T00:17:41;83.57;;;43.63;;
35550;SDS011;21655;46.056;13.616;2022-10-17T00:20:06;96.45;;;45.05;;
35550;SDS011;21655;46.056;13.616;2022-10-17T00:22:32;78.43;;;43.75;;
35550;SDS011;21655;46.056;13.616;2022-10-17T00:24:58;82.40;;;42.17;;
35550;SDS011;21655;46.056;13.616;2022-10-17T00:27:23;92.22;;;42.65;;
35550;SDS011;21655;46.056;13.616;2022-10-17T00:29:49;85.35;;;42.40;;
35550;SDS011;21655;46.056;13.616;2022-10-17T00:32:15;81.85;;;43.00;;
35550;SDS011;21655;46.056;13.616;2022-10-17T00:34:41;81.40;;;43.72;;
35550;SDS011;21655;46.056;13.616;2022-10-17T00:37:07;79.75;;;43.85;;
35550;SDS011;21655;46.056;13.616;2022-10-17T00:39:32;84.60;;;44.00;;
35550;SDS011;21655;46.056;13.616;2022-10-17T00:41:57;80.38;;;43.67;;
35550;SDS011;21655;46.056;13.616;2022-10-17T00:46:55;86.82;;;44.47;;
35550;SDS011;21655;46.056;13.616;2022-10-17T00:49:21;77.78;;;41.92;;
35550;SDS011;21655;46.056;13.616;2022-10-17T00:51:49;75.55;;;41.65;;
35550;SDS011;21655;46.056;13.616;2022-10-17T00:54:18;88.32;;;43.47;;
35550;SDS011;21655;46.056;13.616;2022-10-17T00:56:47;81.93;;;42.92;;
35550;SDS011;21655;46.056;13.616;2022-10-17T00:59:13;84.32;;;45.08;;
35550;SDS011;21655;46.056;13.616;2022-10-17T01:01:42;81.18;;;42.65;;
35550;SDS011;21655;46.056;13.616;2022-10-17T01:04:30;84.47;;;44.05;;
35550;SDS011;21655;46.056;13.616;2022-10-17T01:06:56;81.90;;;43.72;;
35550;SDS011;21655;46.056;13.616;2022-10-17T01:09:22;82.15;;;43.67;;
35550;SDS011;21655;46.056;13.616;2022-10-17T01:14:38;92.72;;;44.80;;
35550;SDS011;21655;46.056;13.616;2022-10-17T01:22:45;86.22;;;44.22;;
35550;SDS011;21655;46.056;13.616;2022-10-17T01:30:51;90.90;;;45.17;;
35550;SDS011;21655;46.056;13.616;2022-10-17T01:33:34;83.13;;;45.22;;
35550;SDS011;21655;46.056;13.616;2022-10-17T01:42:27;87.07;;;45.80;;
35550;SDS011;21655;46.056;13.616;2022-10-17T01:45:07;82.50;;;42.28;;
35550;SDS011;21655;46.056;13.616;2022-10-17T01:47:38;81.78;;;44.25;;
35550;SDS011;21655;46.056;13.616;2022-10-17T01:50:08;88.78;;;46.17;;
35550;SDS011;21655;46.056;13.616;2022-10-17T01:52:42;96.53;;;49.05;;
35550;SDS011;21655;46.056;13.616;2022-10-17T01:55:22;90.47;;;47.08;;
35550;SDS011;21655;46.056;13.616;2022-10-17T01:58:15;92.97;;;45.85;;
35550;SDS011;21655;46.056;13.616;2022-10-17T02:00:46;93.63;;;48.10;;
35550;SDS011;21655;46.056;13.616;2022-10-17T02:03:14;93.22;;;46.28;;
35550;SDS011;21655;46.056;13.616;2022-10-17T02:05:42;87.60;;;47.20;;
35550;SDS011;21655;46.056;13.616;2022-10-17T02:08:08;91.15;;;47.50;;
35550;SDS011;21655;46.056;13.616;2022-10-17T02:10:48;89.40;;;45.95;;
35550;SDS011;21655;46.056;13.616;2022-10-17T02:19:00;111.83;;;53.40;;
35550;SDS011;21655;46.056;13.616;2022-10-17T02:29:47;96.75;;;49.75;;
35550;SDS011;21655;46.056;13.616;2022-10-17T02:32:21;101.18;;;49.03;;
35550;SDS011;21655;46.056;13.616;2022-10-17T02:34:53;101.82;;;49.90;;
35550;SDS011;21655;46.056;13.616;2022-10-17T02:37:22;105.22;;;50.80;;
35550;SDS011;21655;46.056;13.616;2022-10-17T02:39:51;98.65;;;50.83;;
35550;SDS011;21655;46.056;13.616;2022-10-17T02:42:19;108.88;;;52.60;;
35550;SDS011;21655;46.056;13.616;2022-10-17T02:44:47;104.43;;;52.92;;
35550;SDS011;21655;46.056;13.616;2022-10-17T02:47:34;96.18;;;50.20;;
35550;SDS011;21655;46.056;13.616;2022-10-17T02:50:05;108.40;;;52.35;;
35550;SDS011;21655;46.056;13.616;2022-10-17T02:57:57;108.07;;;54.10;;
35550;SDS011;21655;46.056;13.616;2022-10-17T03:00:24;95.60;;;50.80;;
35550;SDS011;21655;46.056;13.616;2022-10-17T03:02:53;100.22;;;52.83;;
35550;SDS011;21655;46.056;13.616;2022-10-17T03:05:23;98.00;;;49.05;;
35550;SDS011;21655;46.056;13.616;2022-10-17T03:07:50;96.90;;;49.58;;
35550;SDS011;21655;46.056;13.616;2022-10-17T03:10:16;94.93;;;48.75;;
35550;SDS011;21655;46.056;13.616;2022-10-17T03:12:42;93.35;;;46.97;;
35550;SDS011;21655;46.056;13.616;2022-10-17T03:15:08;93.05;;;48.55;;
35550;SDS011;21655;46.056;13.616;2022-10-17T03:17:34;86.13;;;45.92;;
35550;SDS011;21655;46.056;13.616;2022-10-17T03:20:00;87.10;;;46.55;;
35550;SDS011;21655;46.056;13.616;2022-10-17T03:22:25;97.70;;;46.05;;
35550;SDS011;21655;46.056;13.616;2022-10-17T03:24:51;86.30;;;45.20;;
35550;SDS011;21655;46.056;13.616;2022-10-17T03:27:16;87.78;;;45.88;;
35550;SDS011;21655;46.056;13.616;2022-10-17T03:29:42;84.85;;;44.53;;
35550;SDS011;21655;46.056;13.616;2022-10-17T03:32:07;80.15;;;44.83;;
35550;SDS011;21655;46.056;13.616;2022-10-17T03:34:32;82.50;;;44.00;;
35550;SDS011;21655;46.056;13.616;2022-10-17T03:36:58;93.25;;;47.55;;
35550;SDS011;21655;46.056;13.616;2022-10-17T03:39:23;85.10;;;45.80;;
35550;SDS011;21655;46.056;13.616;2022-10-17T03:41:49;84.18;;;46.15;;
35550;SDS011;21655;46.056;13.616;2022-10-17T03:44:14;88.95;;;45.45;;
35550;SDS011;21655;46.056;13.616;2022-10-17T03:46:39;83.47;;;45.50;;
35550;SDS011;21655;46.056;13.616;2022-10-17T03:49:05;88.50;;;46.33;;
35550;SDS011;21655;46.056;13.616;2022-10-17T03:51:31;88.10;;;45.92;;
35550;SDS011;21655;46.056;13.616;2022-10-17T03:53:57;87.22;;;46.90;;
35550;SDS011;21655;46.056;13.616;2022-10-17T03:56:23;87.30;;;46.15;;
35550;SDS011;21655;46.056;13.616;2022-10-17T03:58:49;83.88;;;45.15;;
35550;SDS011;21655;46.056;13.616;2022-10-17T04:01:15;85.03;;;44.95;;
35550;SDS011;21655;46.056;13.616;2022-10-17T04:03:42;95.90;;;46.17;;
35550;SDS011;21655;46.056;13.616;2022-10-17T04:06:09;84.72;;;44.38;;
35550;SDS011;21655;46.056;13.616;2022-10-17T04:08:36;83.13;;;45.63;;
35550;SDS011;21655;46.056;13.616;2022-10-17T04:11:03;84.85;;;45.03;;
35550;SDS011;21655;46.056;13.616;2022-10-17T04:13:31;84.43;;;45.80;;
35550;SDS011;21655;46.056;13.616;2022-10-17T04:15:57;81.05;;;43.08;;
35550;SDS011;21655;46.056;13.616;2022-10-17T04:18:24;84.15;;;44.63;;
35550;SDS011;21655;46.056;13.616;2022-10-17T04:20:50;96.88;;;45.05;;
35550;SDS011;21655;46.056;13.616;2022-10-17T04:23:15;85.50;;;44.95;;
35550;SDS011;21655;46.056;13.616;2022-10-17T04:25:41;82.53;;;43.92;;
35550;SDS011;21655;46.056;13.616;2022-10-17T04:28:06;93.65;;;43.72;;
35550;SDS011;21655;46.056;13.616;2022-10-17T04:30:32;80.00;;;42.42;;
35550;SDS011;21655;46.056;13.616;2022-10-17T04:32:57;84.00;;;43.65;;
35550;SDS011;21655;46.056;13.616;2022-10-17T04:35:23;80.57;;;42.50;;
35550;SDS011;21655;46.056;13.616;2022-10-17T04:37:48;83.18;;;45.72;;
35550;SDS011;21655;46.056;13.616;2022-10-17T04:40:13;94.75;;;44.90;;
35550;SDS011;21655;46.056;13.616;2022-10-17T04:42:39;84.88;;;44.22;;
35550;SDS011;21655;46.056;13.616;2022-10-17T04:45:04;84.55;;;45.63;;
35550;SDS011;21655;46.056;13.616;2022-10-17T04:47:31;92.25;;;43.78;;
35550;SDS011;21655;46.056;13.616;2022-10-17T04:49:56;80.18;;;43.45;;
35550;SDS011;21655;46.056;13.616;2022-10-17T04:52:21;71.88;;;42.00;;
35550;SDS011;21655;46.056;13.616;2022-10-17T04:54:47;77.13;;;41.80;;
35550;SDS011;21655;46.056;13.616;2022-10-17T04:57:13;91.22;;;42.67;;
35550;SDS011;21655;46.056;13.616;2022-10-17T04:59:38;86.75;;;42.97;;
35550;SDS011;21655;46.056;13.616;2022-10-17T05:02:04;84.53;;;41.40;;
35550;SDS011;21655;46.056;13.616;2022-10-17T05:04:29;83.82;;;41.40;;
35550;SDS011;21655;46.056;13.616;2022-10-17T05:06:55;82.63;;;40.08;;
35550;SDS011;21655;46.056;13.616;2022-10-17T05:09:20;82.47;;;43.58;;
35550;SDS011;21655;46.056;13.616;2022-10-17T05:11:46;82.57;;;42.25;;
35550;SDS011;21655;46.056;13.616;2022-10-17T05:14:12;83.93;;;42.47;;
35550;SDS011;21655;46.056;13.616;2022-10-17T05:16:37;84.10;;;42.35;;
35550;SDS011;21655;46.056;13.616;2022-10-17T05:19:02;81.70;;;41.72;;
35550;SDS011;21655;46.056;13.616;2022-10-17T05:21:28;80.28;;;44.22;;
35550;SDS011;21655;46.056;13.616;2022-10-17T05:23:54;84.85;;;43.78;;
35550;SDS011;21655;46.056;13.616;2022-10-17T05:26:20;92.10;;;44.28;;
35550;SDS011;21655;46.056;13.616;2022-10-17T05:28:47;80.05;;;42.80;;
35550;SDS011;21655;46.056;13.616;2022-10-17T05:31:13;81.90;;;41.47;;
35550;SDS011;21655;46.056;13.616;2022-10-17T05:33:38;79.00;;;42.40;;
35550;SDS011;21655;46.056;13.616;2022-10-17T05:36:04;84.80;;;42.28;;
35550;SDS011;21655;46.056;13.616;2022-10-17T05:38:31;82.50;;;43.50;;
35550;SDS011;21655;46.056;13.616;2022-10-17T05:40:57;83.15;;;44.58;;
35550;SDS011;21655;46.056;13.616;2022-10-17T05:43:23;82.47;;;43.45;;
35550;SDS011;21655;46.056;13.616;2022-10-17T05:45:49;75.15;;;42.03;;
35550;SDS011;21655;46.056;13.616;2022-10-17T05:48:14;83.75;;;43.13;;
35550;SDS011;21655;46.056;13.616;2022-10-17T05:50:40;82.80;;;43.97;;
35550;SDS011;21655;46.056;13.616;2022-10-17T05:53:05;87.68;;;43.65;;
35550;SDS011;21655;46.056;13.616;2022-10-17T05:55:31;91.90;;;43.33;;
35550;SDS011;21655;46.056;13.616;2022-10-17T05:57:57;77.10;;;41.03;;
35550;SDS011;21655;46.056;13.616;2022-10-17T06:00:24;77.90;;;41.00;;
35550;SDS011;21655;46.056;13.616;2022-10-17T06:02:49;82.97;;;41.35;;
35550;SDS011;21655;46.056;13.616;2022-10-17T06:05:14;73.63;;;40.25;;
35550;SDS011;21655;46.056;13.616;2022-10-17T06:07:40;79.68;;;43.70;;
35550;SDS011;21655;46.056;13.616;2022-10-17T06:10:06;78.32;;;41.90;;
35550;SDS011;21655;46.056;13.616;2022-10-17T06:12:32;73.20;;;40.13;;
35550;SDS011;21655;46.056;13.616;2022-10-17T06:14:57;76.35;;;41.72;;
35550;SDS011;21655;46.056;13.616;2022-10-17T06:17:22;71.38;;;41.28;;
35550;SDS011;21655;46.056;13.616;2022-10-17T06:19:48;78.10;;;40.38;;
35550;SDS011;21655;46.056;13.616;2022-10-17T06:22:13;79.97;;;39.72;;
35550;SDS011;21655;46.056;13.616;2022-10-17T06:24:39;69.38;;;37.28;;
35550;SDS011;21655;46.056;13.616;2022-10-17T06:27:04;66.63;;;38.25;;
35550;SDS011;21655;46.056;13.616;2022-10-17T06:29:30;77.82;;;39.45;;
35550;SDS011;21655;46.056;13.616;2022-10-17T06:31:55;67.85;;;37.92;;
35550;SDS011;21655;46.056;13.616;2022-10-17T06:34:20;61.33;;;37.42;;
35550;SDS011;21655;46.056;13.616;2022-10-17T06:36:46;69.57;;;37.10;;
35550;SDS011;21655;46.056;13.616;2022-10-17T06:39:11;61.25;;;36.25;;
35550;SDS011;21655;46.056;13.616;2022-10-17T06:41:37;55.22;;;31.88;;
35550;SDS011;21655;46.056;13.616;2022-10-17T06:44:05;53.00;;;29.77;;
35550;SDS011;21655;46.056;13.616;2022-10-17T06:46:36;41.80;;;26.33;;
35550;SDS011;21655;46.056;13.616;2022-10-17T06:49:02;47.67;;;26.20;;
35550;SDS011;21655;46.056;13.616;2022-10-17T06:51:29;45.70;;;24.55;;
35550;SDS011;21655;46.056;13.616;2022-10-17T06:53:56;36.85;;;23.75;;
35550;SDS011;21655;46.056;13.616;2022-10-17T06:56:22;32.22;;;22.23;;
35550;SDS011;21655;46.056;13.616;2022-10-17T06:58:48;33.33;;;22.05;;
35550;SDS011;21655;46.056;13.616;2022-10-17T07:01:15;33.25;;;21.95;;
35550;SDS011;21655;46.056;13.616;2022-10-17T07:03:41;33.17;;;20.67;;
35550;SDS011;21655;46.056;13.616;2022-10-17T07:06:07;32.25;;;21.08;;
35550;SDS011;21655;46.056;13.616;2022-10-17T07:08:37;34.35;;;21.13;;
35550;SDS011;21655;46.056;13.616;2022-10-17T07:11:12;30.65;;;20.00;;
35550;SDS011;21655;46.056;13.616;2022-10-17T07:13:40;34.15;;;20.13;;
35550;SDS011;21655;46.056;13.616;2022-10-17T07:16:06;32.38;;;20.40;;
35550;SDS011;21655;46.056;13.616;2022-10-17T07:18:31;28.80;;;20.25;;
35550;SDS011;21655;46.056;13.616;2022-10-17T07:20:57;29.75;;;19.83;;
35550;SDS011;21655;46.056;13.616;2022-10-17T07:23:22;34.30;;;22.25;;
35550;SDS011;21655;46.056;13.616;2022-10-17T07:25:48;30.38;;;21.08;;
35550;SDS011;21655;46.056;13.616;2022-10-17T07:28:14;35.65;;;21.90;;
35550;SDS011;21655;46.056;13.616;2022-10-17T07:30:40;28.92;;;20.67;;
35550;SDS011;21655;46.056;13.616;2022-10-17T07:33:05;30.33;;;20.65;;
35550;SDS011;21655;46.056;13.616;2022-10-17T07:35:31;29.27;;;19.35;;
35550;SDS011;21655;46.056;13.616;2022-10-17T07:37:57;33.15;;;20.88;;
35550;SDS011;21655;46.056;13.616;2022-10-17T07:40:22;28.83;;;19.60;;
35550;SDS011;21655;46.056;13.616;2022-10-17T07:42:48;29.67;;;19.10;;
35550;SDS011;21655;46.056;13.616;2022-10-17T07:45:13;32.90;;;19.95;;
35550;SDS011;21655;46.056;13.616;2022-10-17T07:47:40;31.95;;;20.58;;
35550;SDS011;21655;46.056;13.616;2022-10-17T07:50:05;30.67;;;18.98;;
35550;SDS011;21655;46.056;13.616;2022-10-17T07:52:31;30.40;;;19.23;;
35550;SDS011;21655;46.056;13.616;2022-10-17T07:54:57;29.77;;;18.27;;
35550;SDS011;21655;46.056;13.616;2022-10-17T07:57:23;26.35;;;19.15;;
35550;SDS011;21655;46.056;13.616;2022-10-17T07:59:48;27.05;;;18.98;;
35550;SDS011;21655;46.056;13.616;2022-10-17T08:02:22;28.13;;;19.65;;
35550;SDS011;21655;46.056;13.616;2022-10-17T08:04:49;32.17;;;18.88;;
35550;SDS011;21655;46.056;13.616;2022-10-17T08:07:15;30.02;;;19.33;;
35550;SDS011;21655;46.056;13.616;2022-10-17T08:09:41;30.25;;;18.88;;
35550;SDS011;21655;46.056;13.616;2022-10-17T08:12:07;31.42;;;19.60;;
35550;SDS011;21655;46.056;13.616;2022-10-17T08:14:32;37.72;;;20.10;;
35550;SDS011;21655;46.056;13.616;2022-10-17T08:16:58;31.38;;;18.55;;
35550;SDS011;21655;46.056;13.616;2022-10-17T08:19:23;26.15;;;18.25;;
35550;SDS011;21655;46.056;13.616;2022-10-17T08:21:49;30.42;;;18.05;;
35550;SDS011;21655;46.056;13.616;2022-10-17T08:24:15;30.42;;;18.38;;
35550;SDS011;21655;46.056;13.616;2022-10-17T08:26:41;24.67;;;17.70;;
35550;SDS011;21655;46.056;13.616;2022-10-17T08:29:11;43.45;;;18.73;;
35550;SDS011;21655;46.056;13.616;2022-10-17T08:31:38;22.98;;;16.45;;
35550;SDS011;21655;46.056;13.616;2022-10-17T08:34:03;24.08;;;17.77;;
35550;SDS011;21655;46.056;13.616;2022-10-17T08:36:28;30.85;;;18.38;;
35550;SDS011;21655;46.056;13.616;2022-10-17T08:38:54;27.38;;;19.10;;
35550;SDS011;21655;46.056;13.616;2022-10-17T08:47:25;25.17;;;17.42;;
35550;SDS011;21655;46.056;13.616;2022-10-17T08:49:58;30.33;;;17.35;;
35550;SDS011;21655;46.056;13.616;2022-10-17T08:55:14;23.88;;;17.60;;
35550;SDS011;21655;46.056;13.616;2022-10-17T08:57:40;28.15;;;17.13;;
35550;SDS011;21655;46.056;13.616;2022-10-17T09:00:07;28.30;;;17.60;;
35550;SDS011;21655;46.056;13.616;2022-10-17T09:05:17;25.85;;;18.75;;
35550;SDS011;21655;46.056;13.616;2022-10-17T09:07:51;26.83;;;17.23;;
35550;SDS011;21655;46.056;13.616;2022-10-17T09:15:42;23.02;;;16.38;;
35550;SDS011;21655;46.056;13.616;2022-10-17T09:18:17;22.48;;;16.00;;
35550;SDS011;21655;46.056;13.616;2022-10-17T09:20:53;29.02;;;16.65;;
35550;SDS011;21655;46.056;13.616;2022-10-17T09:23:26;27.17;;;17.05;;
35550;SDS011;21655;46.056;13.616;2022-10-17T09:25:59;21.33;;;17.20;;
35550;SDS011;21655;46.056;13.616;2022-10-17T09:28:36;25.00;;;17.60;;
35550;SDS011;21655;46.056;13.616;2022-10-17T09:33:29;23.23;;;17.02;;
35550;SDS011;21655;46.056;13.616;2022-10-17T09:36:03;29.55;;;16.02;;
35550;SDS011;21655;46.056;13.616;2022-10-17T09:38:40;23.77;;;15.77;;
35550;SDS011;21655;46.056;13.616;2022-10-17T09:41:20;22.50;;;15.63;;
35550;SDS011;21655;46.056;13.616;2022-10-17T09:43:47;26.33;;;17.15;;
35550;SDS011;21655;46.056;13.616;2022-10-17T09:46:30;24.35;;;15.23;;
35550;SDS011;21655;46.056;13.616;2022-10-17T09:49:02;21.30;;;15.15;;
35550;SDS011;21655;46.056;13.616;2022-10-17T09:51:35;19.50;;;15.65;;
35550;SDS011;21655;46.056;13.616;2022-10-17T09:54:07;22.85;;;15.48;;
35550;SDS011;21655;46.056;13.616;2022-10-17T09:59:29;23.17;;;16.88;;
35550;SDS011;21655;46.056;13.616;2022-10-17T10:07:59;24.27;;;16.52;;
35550;SDS011;21655;46.056;13.616;2022-10-17T10:10:27;22.55;;;15.75;;
35550;SDS011;21655;46.056;13.616;2022-10-17T10:15:50;24.23;;;17.00;;
35550;SDS011;21655;46.056;13.616;2022-10-17T10:18:34;24.95;;;15.90;;
35550;SDS011;21655;46.056;13.616;2022-10-17T10:23:34;23.30;;;14.98;;
35550;SDS011;21655;46.056;13.616;2022-10-17T10:26:05;23.83;;;16.42;;
35550;SDS011;21655;46.056;13.616;2022-10-17T10:28:51;28.20;;;15.40;;
35550;SDS011;21655;46.056;13.616;2022-10-17T10:31:24;21.63;;;15.60;;
35550;SDS011;21655;46.056;13.616;2022-10-17T10:33:52;31.58;;;15.25;;
35550;SDS011;21655;46.056;13.616;2022-10-17T10:36:18;20.05;;;15.73;;
35550;SDS011;21655;46.056;13.616;2022-10-17T10:38:50;22.40;;;15.52;;
35550;SDS011;21655;46.056;13.616;2022-10-17T10:41:19;24.67;;;15.45;;
35550;SDS011;21655;46.056;13.616;2022-10-17T10:43:46;20.48;;;14.15;;
35550;SDS011;21655;46.056;13.616;2022-10-17T10:51:32;19.67;;;13.52;;
35550;SDS011;21655;46.056;13.616;2022-10-17T10:57:16;18.42;;;13.30;;
35550;SDS011;21655;46.056;13.616;2022-10-17T10:59:42;18.88;;;13.68;;
35550;SDS011;21655;46.056;13.616;2022-10-17T11:12:40;20.35;;;13.35;;
35550;SDS011;21655;46.056;13.616;2022-10-17T11:17:58;27.08;;;13.10;;
35550;SDS011;21655;46.056;13.616;2022-10-17T11:26:43;20.73;;;13.07;;
35550;SDS011;21655;46.056;13.616;2022-10-17T11:29:05;18.02;;;11.65;;
35550;SDS011;21655;46.056;13.616;2022-10-17T11:31:33;14.07;;;11.77;;
35550;SDS011;21655;46.056;13.616;2022-10-17T11:34:21;16.38;;;13.18;;
35550;SDS011;21655;46.056;13.616;2022-10-17T11:36:49;16.98;;;12.95;;
35550;SDS011;21655;46.056;13.616;2022-10-17T11:39:24;17.00;;;12.73;;
35550;SDS011;21655;46.056;13.616;2022-10-17T11:41:59;24.42;;;13.57;;
35550;SDS011;21655;46.056;13.616;2022-10-17T11:44:33;17.02;;;11.60;;
35550;SDS011;21655;46.056;13.616;2022-10-17T11:47:04;19.52;;;12.73;;
35550;SDS011;21655;46.056;13.616;2022-10-17T11:49:45;20.35;;;12.30;;
35550;SDS011;21655;46.056;13.616;2022-10-17T11:54:51;18.10;;;12.20;;
35550;SDS011;21655;46.056;13.616;2022-10-17T12:08:27;21.08;;;12.57;;
35550;SDS011;21655;46.056;13.616;2022-10-17T12:11:13;17.00;;;11.48;;
35550;SDS011;21655;46.056;13.616;2022-10-17T12:17:30;15.63;;;12.57;;
35550;SDS011;21655;46.056;13.616;2022-10-17T12:22:50;18.85;;;12.35;;
35550;SDS011;21655;46.056;13.616;2022-10-17T12:27:50;16.95;;;12.13;;
35550;SDS011;21655;46.056;13.616;2022-10-17T12:30:37;16.15;;;11.68;;
35550;SDS011;21655;46.056;13.616;2022-10-17T12:35:46;15.55;;;12.27;;
35550;SDS011;21655;46.056;13.616;2022-10-17T12:38:20;16.90;;;12.30;;
35550;SDS011;21655;46.056;13.616;2022-10-17T12:40:51;15.82;;;11.90;;
35550;SDS011;21655;46.056;13.616;2022-10-17T12:46:03;17.77;;;12.20;;
35550;SDS011;21655;46.056;13.616;2022-10-17T12:53:58;16.73;;;11.85;;
35550;SDS011;21655;46.056;13.616;2022-10-17T12:59:13;14.90;;;12.10;;
35550;SDS011;21655;46.056;13.616;2022-10-17T13:01:44;14.85;;;11.48;;
35550;SDS011;21655;46.056;13.616;2022-10-17T13:04:12;15.43;;;12.43;;
35550;SDS011;21655;46.056;13.616;2022-10-17T13:06:42;18.02;;;12.63;;
35550;SDS011;21655;46.056;13.616;2022-10-17T13:09:17;15.73;;;12.73;;
35550;SDS011;21655;46.056;13.616;2022-10-17T13:11:48;16.73;;;11.90;;
35550;SDS011;21655;46.056;13.616;2022-10-17T13:14:15;16.35;;;12.70;;
35550;SDS011;21655;46.056;13.616;2022-10-17T13:16:57;17.27;;;12.65;;
35550;SDS011;21655;46.056;13.616;2022-10-17T13:19:25;18.48;;;13.75;;
35550;SDS011;21655;46.056;13.616;2022-10-17T13:22:03;18.48;;;12.90;;
35550;SDS011;21655;46.056;13.616;2022-10-17T13:25:08;18.45;;;13.38;;
35550;SDS011;21655;46.056;13.616;2022-10-17T13:27:42;17.23;;;12.73;;
35550;SDS011;21655;46.056;13.616;2022-10-17T13:36:03;18.63;;;12.10;;
35550;SDS011;21655;46.056;13.616;2022-10-17T13:38:32;17.83;;;12.80;;
35550;SDS011;21655;46.056;13.616;2022-10-17T13:40:59;17.00;;;13.20;;
35550;SDS011;21655;46.056;13.616;2022-10-17T13:43:26;15.40;;;12.15;;
35550;SDS011;21655;46.056;13.616;2022-10-17T13:45:59;16.92;;;11.95;;
35550;SDS011;21655;46.056;13.616;2022-10-17T13:48:29;16.13;;;12.50;;
35550;SDS011;21655;46.056;13.616;2022-10-17T13:50:59;19.30;;;12.80;;
35550;SDS011;21655;46.056;13.616;2022-10-17T13:53:36;20.25;;;12.45;;
35550;SDS011;21655;46.056;13.616;2022-10-17T13:58:50;16.75;;;12.60;;
35550;SDS011;21655;46.056;13.616;2022-10-17T14:01:27;16.65;;;12.48;;
35550;SDS011;21655;46.056;13.616;2022-10-17T14:03:54;17.58;;;13.02;;
35550;SDS011;21655;46.056;13.616;2022-10-17T14:06:21;16.48;;;13.05;;
35550;SDS011;21655;46.056;13.616;2022-10-17T14:08:50;17.35;;;13.27;;
35550;SDS011;21655;46.056;13.616;2022-10-17T14:11:38;16.98;;;13.55;;
35550;SDS011;21655;46.056;13.616;2022-10-17T14:14:14;17.70;;;13.25;;
35550;SDS011;21655;46.056;13.616;2022-10-17T14:16:45;20.40;;;14.32;;
35550;SDS011;21655;46.056;13.616;2022-10-17T14:19:28;22.48;;;14.27;;
35550;SDS011;21655;46.056;13.616;2022-10-17T14:24:43;23.10;;;13.75;;
35550;SDS011;21655;46.056;13.616;2022-10-17T14:27:26;22.60;;;14.48;;
35550;SDS011;21655;46.056;13.616;2022-10-17T14:30:02;23.50;;;15.23;;
35550;SDS011;21655;46.056;13.616;2022-10-17T14:32:30;24.20;;;15.77;;
35550;SDS011;21655;46.056;13.616;2022-10-17T14:35:01;20.50;;;15.45;;
35550;SDS011;21655;46.056;13.616;2022-10-17T14:37:44;23.35;;;15.25;;
35550;SDS011;21655;46.056;13.616;2022-10-17T14:40:25;30.65;;;16.17;;
35550;SDS011;21655;46.056;13.616;2022-10-17T14:42:52;25.27;;;15.48;;
35550;SDS011;21655;46.056;13.616;2022-10-17T14:47:48;22.52;;;15.02;;
35550;SDS011;21655;46.056;13.616;2022-10-17T14:52:40;27.70;;;14.95;;
35550;SDS011;21655;46.056;13.616;2022-10-17T14:55:22;23.23;;;15.45;;
35550;SDS011;21655;46.056;13.616;2022-10-17T14:57:48;22.75;;;15.55;;
35550;SDS011;21655;46.056;13.616;2022-10-17T15:00:17;21.25;;;15.35;;
35550;SDS011;21655;46.056;13.616;2022-10-17T15:02:45;21.80;;;15.57;;
35550;SDS011;21655;46.056;13.616;2022-10-17T15:05:12;23.13;;;16.42;;
35550;SDS011;21655;46.056;13.616;2022-10-17T15:07:38;21.35;;;16.25;;
35550;SDS011;21655;46.056;13.616;2022-10-17T15:10:04;28.63;;;16.20;;
35550;SDS011;21655;46.056;13.616;2022-10-17T15:12:30;26.27;;;16.20;;
35550;SDS011;21655;46.056;13.616;2022-10-17T15:14:56;27.17;;;17.63;;
35550;SDS011;21655;46.056;13.616;2022-10-17T15:17:25;30.73;;;16.83;;
35550;SDS011;21655;46.056;13.616;2022-10-17T15:19:52;21.25;;;17.08;;
35550;SDS011;21655;46.056;13.616;2022-10-17T15:22:17;28.83;;;18.27;;
35550;SDS011;21655;46.056;13.616;2022-10-17T15:24:43;26.13;;;17.02;;
35550;SDS011;21655;46.056;13.616;2022-10-17T15:27:13;30.65;;;18.23;;
35550;SDS011;21655;46.056;13.616;2022-10-17T15:29:44;28.13;;;17.85;;
35550;SDS011;21655;46.056;13.616;2022-10-17T15:32:09;31.30;;;17.45;;
35550;SDS011;21655;46.056;13.616;2022-10-17T15:34:35;25.15;;;17.70;;
35550;SDS011;21655;46.056;13.616;2022-10-17T15:37:00;29.25;;;19.33;;
35550;SDS011;21655;46.056;13.616;2022-10-17T15:39:27;28.85;;;18.25;;
35550;SDS011;21655;46.056;13.616;2022-10-17T15:41:53;23.05;;;18.02;;
35550;SDS011;21655;46.056;13.616;2022-10-17T15:44:18;33.28;;;19.10;;
35550;SDS011;21655;46.056;13.616;2022-10-17T15:46:43;26.50;;;19.25;;
35550;SDS011;21655;46.056;13.616;2022-10-17T15:49:10;29.27;;;19.23;;
35550;SDS011;21655;46.056;13.616;2022-10-17T15:51:37;27.58;;;20.02;;
35550;SDS011;21655;46.056;13.616;2022-10-17T15:54:03;27.45;;;19.40;;
35550;SDS011;21655;46.056;13.616;2022-10-17T15:56:37;32.65;;;20.85;;
35550;SDS011;21655;46.056;13.616;2022-10-17T15:59:12;37.80;;;22.23;;
35550;SDS011;21655;46.056;13.616;2022-10-17T16:01:40;32.78;;;21.58;;
35550;SDS011;21655;46.056;13.616;2022-10-17T16:04:08;32.10;;;21.23;;
35550;SDS011;21655;46.056;13.616;2022-10-17T16:06:36;40.42;;;22.60;;
35550;SDS011;21655;46.056;13.616;2022-10-17T16:09:02;41.92;;;22.85;;
35550;SDS011;21655;46.056;13.616;2022-10-17T16:11:29;44.85;;;22.98;;
35550;SDS011;21655;46.056;13.616;2022-10-17T16:14:00;38.10;;;22.67;;
35550;SDS011;21655;46.056;13.616;2022-10-17T16:16:27;35.00;;;22.70;;
35550;SDS011;21655;46.056;13.616;2022-10-17T16:18:53;46.70;;;24.35;;
35550;SDS011;21655;46.056;13.616;2022-10-17T16:21:19;44.75;;;23.30;;
35550;SDS011;21655;46.056;13.616;2022-10-17T16:23:49;42.60;;;24.88;;
35550;SDS011;21655;46.056;13.616;2022-10-17T16:26:14;42.55;;;29.23;;
35550;SDS011;21655;46.056;13.616;2022-10-17T16:28:40;39.67;;;24.98;;
35550;SDS011;21655;46.056;13.616;2022-10-17T16:33:47;51.70;;;26.27;;
35550;SDS011;21655;46.056;13.616;2022-10-17T16:36:13;42.10;;;26.00;;
35550;SDS011;21655;46.056;13.616;2022-10-17T16:38:39;41.17;;;26.52;;
35550;SDS011;21655;46.056;13.616;2022-10-17T16:41:07;41.38;;;25.90;;
35550;SDS011;21655;46.056;13.616;2022-10-17T16:43:42;41.20;;;26.92;;
35550;SDS011;21655;46.056;13.616;2022-10-17T16:46:08;49.10;;;26.83;;
35550;SDS011;21655;46.056;13.616;2022-10-17T16:48:33;49.88;;;25.90;;
35550;SDS011;21655;46.056;13.616;2022-10-17T16:50:59;49.08;;;28.15;;
35550;SDS011;21655;46.056;13.616;2022-10-17T16:53:26;46.15;;;28.25;;
35550;SDS011;21655;46.056;13.616;2022-10-17T16:56:01;36.03;;;25.88;;